Time;durP1;ratioP1;P1;durP2;ratioP2;P2;SDS_P1;SDS_P2;PMS_P1;PMS_P2;Temp;Humidity;BMP_temperature;BMP_pressure;BME280_temperature;BME280_humidity;BME280_pressure;Samples;Min_cycle;Max_cycle;Signal;HPM_P1;HPM_P2
2022/01/02 00:02:27;;;;;;;1.17;1.17;;;;;;;2.95;100.00;99486.38;4916015;29;20040;-82
2022/01/02 00:05:01;;;;;;;1.98;1.88;;;;;;;2.91;100.00;99484.59;4916048;29;20683;-81
2022/01/02 00:07:30;;;;;;;4.13;2.30;;;;;;;2.89;100.00;99481.97;4924181;29;20127;-81
2022/01/02 00:09:59;;;;;;;2.93;2.30;;;;;;;2.81;100.00;99476.69;4934231;29;20039;-81
2022/01/02 00:12:31;;;;;;;2.45;1.45;;;;;;;2.83;100.00;99471.59;4934865;29;20393;-81
2022/01/02 00:14:58;;;;;;;1.70;1.65;;;;;;;2.81;100.00;99474.16;4934929;29;20485;-81
2022/01/02 00:17:23;;;;;;;2.05;1.25;;;;;;;2.88;100.00;99485.38;4934740;29;20440;-81
2022/01/02 00:19:56;;;;;;;3.13;2.45;;;;;;;2.79;100.00;99480.03;4934839;29;20123;-81
2022/01/02 00:22:35;;;;;;;1.55;1.45;;;;;;;2.74;100.00;99487.59;4934798;29;20110;-81
2022/01/02 00:25:04;;;;;;;2.13;2.03;;;;;;;2.69;100.00;99476.38;4934998;28;20102;-81
2022/01/02 00:27:31;;;;;;;0.95;0.90;;;;;;;2.80;100.00;99480.09;4934680;29;20060;-81
2022/01/02 00:29:58;;;;;;;2.33;2.22;;;;;;;2.84;100.00;99489.56;4934643;29;20020;-81
2022/01/02 00:32:23;;;;;;;1.73;1.63;;;;;;;2.86;100.00;99483.63;4934628;29;20060;-81
2022/01/02 00:34:53;;;;;;;1.88;1.77;;;;;;;2.73;100.00;99478.19;4934642;29;20035;-81
2022/01/02 00:37:19;;;;;;;1.85;1.75;;;;;;;2.74;100.00;99467.13;4928817;29;20418;-81
2022/01/02 00:39:44;;;;;;;1.50;1.40;;;;;;;2.73;100.00;99462.84;4932520;29;20023;-81
2022/01/02 00:42:12;;;;;;;0.90;0.90;;;;;;;2.73;100.00;99460.28;4934548;29;20483;-81
2022/01/02 00:44:49;;;;;;;2.08;1.85;;;;;;;2.75;100.00;99456.06;4934651;29;20031;-81
2022/01/02 00:47:31;;;;;;;1.13;1.13;;;;;;;2.75;100.00;99461.19;4938417;29;20031;-81
2022/01/02 00:50:06;;;;;;;1.25;1.25;;;;;;;2.79;100.00;99464.69;4938565;29;20369;-81
2022/01/02 00:52:45;;;;;;;1.35;1.35;;;;;;;2.80;100.00;99474.97;4938353;29;20023;-81
2022/01/02 00:55:22;;;;;;;3.30;2.75;;;;;;;2.80;100.00;99477.53;4938363;29;20441;-81
2022/01/02 00:58:01;;;;;;;2.05;1.95;;;;;;;2.75;100.00;99458.63;4938213;29;20087;-81
2022/01/02 08:00:59;;;;;;;1.75;1.70;;;;;;;1.64;100.00;99131.34;5639052;23;20122;-75
2022/01/02 08:03:24;;;;;;;5.47;1.85;;;;;;;1.67;100.00;99132.28;4933720;29;20103;-75
2022/01/02 08:05:49;;;;;;;2.60;2.38;;;;;;;1.72;100.00;99138.34;4934776;29;20034;-75
2022/01/02 08:08:15;;;;;;;1.73;1.63;;;;;;;1.85;100.00;99128.44;4930544;29;20028;-75
2022/01/02 08:10:40;;;;;;;10.32;3.13;;;;;;;1.82;100.00;99130.91;4916030;29;20036;-75
2022/01/02 08:13:05;;;;;;;1.73;1.63;;;;;;;1.97;100.00;99133.78;4916026;29;20095;-74
2022/01/02 08:15:32;;;;;;;1.10;1.10;;;;;;;1.99;100.00;99129.59;4916362;29;20405;-75
2022/01/02 08:17:58;;;;;;;1.48;1.38;;;;;;;2.05;100.00;99139.94;4916075;29;20031;-75
2022/01/02 08:20:23;;;;;;;1.00;1.00;;;;;;;2.13;100.00;99143.53;4915821;29;20036;-75
2022/01/02 08:22:49;;;;;;;1.60;1.50;;;;;;;2.30;100.00;99131.97;4915842;29;20078;-74
2022/01/02 08:25:14;;;;;;;1.05;1.05;;;;;;;2.35;100.00;99123.53;4916092;29;20028;-75
2022/01/02 08:27:39;;;;;;;2.78;2.55;;;;;;;2.44;100.00;99128.81;4915828;29;20056;-75
2022/01/02 08:30:05;;;;;;;2.53;1.67;;;;;;;2.51;100.00;99134.06;4915815;29;20028;-75
2022/01/02 08:32:31;;;;;;;2.67;2.47;;;;;;;2.47;100.00;99126.34;4915798;29;20035;-75
2022/01/02 08:34:56;;;;;;;1.52;1.42;;;;;;;2.77;100.00;99114.13;4915798;29;20032;-75
2022/01/02 08:37:21;;;;;;;2.72;2.50;;;;;;;2.80;100.00;99109.06;4929919;29;20094;-75
2022/01/02 08:39:47;;;;;;;1.50;1.45;;;;;;;3.19;100.00;99113.16;4918352;29;20032;-75
2022/01/02 08:42:13;;;;;;;1.40;1.33;;;;;;;3.02;100.00;99114.56;4915685;29;20028;-75
2022/01/02 08:44:39;;;;;;;1.70;1.60;;;;;;;3.14;100.00;99125.00;4915593;29;20025;-75
2022/01/02 08:47:06;;;;;;;2.78;2.10;;;;;;;3.20;100.00;99120.00;4915577;29;20091;-75
2022/01/02 08:49:32;;;;;;;1.27;1.27;;;;;;;3.63;100.00;99120.69;4915639;29;20047;-75
2022/01/02 08:51:58;;;;;;;1.80;1.70;;;;;;;3.55;100.00;99112.03;4914352;29;20056;-75
2022/01/02 08:54:23;;;;;;;1.50;1.40;;;;;;;3.71;100.00;99113.97;4915732;29;20520;-80
2022/01/02 08:56:49;;;;;;;1.95;1.40;;;;;;;3.46;100.00;99119.56;4915569;29;20500;-80
2022/01/02 08:59:14;;;;;;;2.58;2.40;;;;;;;3.78;100.00;99112.38;4915548;29;20111;-80
2022/01/02 09:01:40;;;;;;;1.60;1.50;;;;;;;4.33;98.99;99106.25;4915413;29;20114;-80
2022/01/02 09:04:05;;;;;;;2.67;2.58;;;;;;;4.61;95.81;99107.44;4915626;29;20028;-80
2022/01/02 09:06:30;;;;;;;2.60;2.33;;;;;;;6.71;87.51;99093.47;4922999;29;20070;-81
2022/01/02 09:08:56;;;;;;;1.38;1.33;;;;;;;6.62;83.85;99096.03;4928447;29;20080;-81
2022/01/02 09:11:22;;;;;;;3.55;3.20;;;;;;;6.03;87.34;99107.78;4919095;29;20524;-81
2022/01/02 09:13:48;;;;;;;1.35;1.25;;;;;;;5.25;90.93;99109.78;4920547;29;20020;-81
2022/01/02 09:16:13;;;;;;;2.10;1.90;;;;;;;5.12;92.60;99115.66;4918777;29;20177;-81
2022/01/02 09:18:38;;;;;;;0.98;0.98;;;;;;;5.19;93.84;99122.59;4919070;29;20087;-81
2022/01/02 09:21:04;;;;;;;1.75;1.42;;;;;;;5.77;92.63;99120.47;4918875;29;20055;-81
2022/01/02 09:23:29;;;;;;;1.80;1.70;;;;;;;7.68;84.10;99104.72;4918974;29;20033;-81
2022/01/02 09:25:55;;;;;;;5.30;2.15;;;;;;;8.47;77.79;99096.81;4918786;29;20478;-81
2022/01/02 09:28:20;;;;;;;1.92;1.83;;;;;;;9.58;72.03;99098.66;4918782;29;20148;-81
2022/01/02 09:30:45;;;;;;;3.50;2.15;;;;;;;10.48;68.81;99095.13;4918837;29;20039;-81
2022/01/02 09:33:11;;;;;;;1.95;1.50;;;;;;;10.91;66.81;99089.38;4918793;29;20028;-81
2022/01/02 09:35:38;;;;;;;2.45;2.03;;;;;;;10.79;66.84;99101.63;4926690;29;20036;-81
2022/01/02 09:38:03;;;;;;;1.35;1.25;;;;;;;10.10;68.56;99108.47;4934547;29;20481;-81
2022/01/02 09:40:29;;;;;;;1.75;1.65;;;;;;;9.41;72.38;99112.56;4917402;29;20176;-81
2022/01/02 09:42:57;;;;;;;1.58;1.27;;;;;;;8.55;75.22;99108.81;4917271;29;20171;-81
2022/01/02 09:45:22;;;;;;;2.13;1.98;;;;;;;7.83;79.34;99109.00;4918550;29;20055;-81
2022/01/02 09:47:48;;;;;;;1.85;1.75;;;;;;;7.21;83.39;99115.91;4918324;29;20028;-81
2022/01/02 09:50:14;;;;;;;5.60;1.73;;;;;;;6.64;86.09;99132.94;4917160;29;20119;-81
2022/01/02 09:52:39;;;;;;;3.67;1.58;;;;;;;6.14;89.55;99123.28;4918466;29;20131;-81
2022/01/02 09:55:06;;;;;;;2.08;1.70;;;;;;;5.96;92.25;99133.50;4917239;29;20035;-81
2022/01/02 09:57:31;;;;;;;2.17;1.58;;;;;;;5.75;93.78;99132.44;4918120;29;20028;-81
2022/01/02 09:59:56;;;;;;;2.15;1.77;;;;;;;5.74;95.14;99128.16;4918349;29;20034;-81
2022/01/02 10:02:23;;;;;;;3.17;2.85;;;;;;;5.96;95.60;99123.19;4918224;29;20040;-81
2022/01/02 10:04:48;;;;;;;2.22;2.10;;;;;;;5.99;94.56;99113.78;4926564;29;20481;-81
2022/01/02 10:07:33;;;;;;;2.10;1.98;;;;;;;5.96;94.39;99112.91;4936899;29;20034;-81
2022/01/02 10:10:10;;;;;;;2.13;1.42;;;;;;;6.09;95.43;99095.00;4919212;29;20028;-81
2022/01/02 10:12:36;;;;;;;2.15;1.77;;;;;;;6.13;94.63;99100.97;4918143;29;20397;-81
2022/01/02 10:15:24;;;;;;;1.55;1.52;;;;;;;5.98;95.48;99106.06;4918055;29;20028;-81
2022/01/02 10:17:53;;;;;;;3.28;2.28;;;;;;;5.91;96.25;99100.88;4916193;29;20497;-81
2022/01/02 10:20:20;;;;;;;2.10;1.92;;;;;;;5.91;96.63;99098.31;4917892;29;20043;-81
2022/01/02 10:23:03;;;;;;;2.25;2.08;;;;;;;5.81;97.15;99103.38;4917912;29;20140;-75
2022/01/02 10:25:40;;;;;;;4.03;2.78;;;;;;;5.95;97.35;99106.03;4917842;29;20043;-75
2022/01/02 10:28:35;;;;;;;1.30;1.30;;;;;;;6.02;95.81;99092.38;4917989;29;20028;-75
2022/01/02 10:31:03;;;;;;;1.10;1.10;;;;;;;6.34;95.08;99087.38;4917911;29;20036;-75
2022/01/02 10:33:45;;;;;;;2.58;1.48;;;;;;;6.19;96.14;99080.47;4917779;29;20056;-75
2022/01/02 10:36:11;;;;;;;2.25;1.73;;;;;;;6.21;96.42;99083.03;4928676;29;20027;-75
2022/01/02 10:38:36;;;;;;;6.50;1.83;;;;;;;6.18;96.60;99089.84;4928662;29;20023;-75
2022/01/02 10:41:02;;;;;;;2.05;1.95;;;;;;;5.84;98.41;99087.94;4936611;29;20024;-76
2022/01/02 10:43:33;;;;;;;2.65;2.45;;;;;;;5.75;99.53;99077.59;4936532;29;20024;-75
2022/01/02 10:46:03;;;;;;;7.72;2.88;;;;;;;5.71;100.00;99069.03;4936374;29;20050;-75
2022/01/02 10:48:39;;;;;;;2.30;1.58;;;;;;;5.77;100.00;99061.34;4936426;29;20519;-75
2022/01/02 10:51:14;;;;;;;2.67;2.05;;;;;;;5.75;100.00;99054.44;4936446;29;20080;-75
2022/01/02 10:54:01;;;;;;;2.05;1.95;;;;;;;5.74;100.00;99035.59;4936555;29;20031;-75
2022/01/02 10:56:30;;;;;;;1.20;1.20;;;;;;;5.98;100.00;99032.31;4936133;29;20062;-75
2022/01/02 10:58:58;;;;;;;2.50;1.57;;;;;;;5.98;100.00;99034.03;4936228;29;20034;-75
2022/01/02 11:01:23;;;;;;;2.90;2.13;;;;;;;5.96;100.00;99035.75;4936001;29;20491;-75
2022/01/02 11:03:51;;;;;;;1.90;1.70;;;;;;;6.03;100.00;99033.22;4936084;29;20126;-75
2022/01/02 11:06:26;;;;;;;2.10;1.90;;;;;;;6.05;100.00;99035.81;4930003;29;20422;-74
2022/01/02 11:08:55;;;;;;;1.65;1.48;;;;;;;6.19;100.00;99039.28;4937013;29;20020;-75
2022/01/02 11:11:21;;;;;;;1.98;1.73;;;;;;;6.42;99.29;99029.91;4916940;29;20565;-75
2022/01/02 11:13:46;;;;;;;2.65;1.65;;;;;;;6.43;98.96;99023.94;4916904;29;20032;-75
2022/01/02 11:16:12;;;;;;;1.58;1.58;;;;;;;6.40;99.50;99031.63;4916726;29;20115;-75
2022/01/02 11:18:37;;;;;;;5.20;3.20;;;;;;;6.40;100.00;99048.78;4916885;29;20462;-80
2022/01/02 11:21:10;;;;;;;3.90;2.30;;;;;;;6.44;99.93;99046.22;4916856;29;20035;-75
2022/01/02 11:23:57;;;;;;;2.15;2.05;;;;;;;6.44;99.95;99048.81;4916768;29;20028;-80
2022/01/02 11:26:42;;;;;;;1.50;1.47;;;;;;;6.47;100.00;99055.66;4916584;29;20055;-75
2022/01/02 11:29:08;;;;;;;1.98;1.60;;;;;;;6.83;99.71;99070.34;4916522;29;20024;-75
2022/01/02 11:31:36;;;;;;;1.83;1.73;;;;;;;6.83;99.79;99060.03;4916185;29;20103;-75
2022/01/02 11:34:20;;;;;;;1.48;1.42;;;;;;;7.07;98.28;99048.91;4919128;29;20024;-75
2022/01/02 11:36:45;;;;;;;1.65;1.55;;;;;;;7.33;98.15;99040.31;4928706;29;20702;-75
2022/01/02 11:39:11;;;;;;;2.55;1.77;;;;;;;7.52;97.71;99041.16;4915498;29;20043;-75
2022/01/02 11:41:50;;;;;;;2.50;1.63;;;;;;;7.78;95.59;99041.06;4916391;29;20466;-74
2022/01/02 11:44:20;;;;;;;1.65;1.55;;;;;;;7.70;95.76;99020.47;4916587;29;20496;-80
2022/01/02 11:46:46;;;;;;;2.38;2.08;;;;;;;7.66;95.47;99018.78;4916351;29;20032;-74
2022/01/02 11:49:15;;;;;;;1.92;1.83;;;;;;;7.72;94.95;99008.44;4916375;29;20032;-74
2022/01/02 11:51:55;;;;;;;2.28;1.85;;;;;;;7.74;95.53;99001.56;4916425;29;20020;-74
2022/01/02 11:56:59;;;;;;;3.88;2.17;;;;;;;7.68;94.61;99002.41;4916116;29;20379;-74
2022/01/02 11:59:43;;;;;;;1.95;1.83;;;;;;;7.61;95.54;99008.47;4916198;29;20035;-79
2022/01/02 12:02:34;;;;;;;5.57;2.38;;;;;;;7.71;93.71;99009.31;4914866;29;20168;-74
2022/01/02 12:05:02;;;;;;;2.13;1.65;;;;;;;8.27;83.39;98997.91;4924080;29;20024;-74
2022/01/02 12:07:34;;;;;;;2.78;1.73;;;;;;;8.40;86.87;98991.81;4925411;29;20028;-80
2022/01/02 12:10:28;;;;;;;2.03;1.73;;;;;;;8.56;85.58;98989.13;4933622;29;20039;-79
2022/01/02 12:12:59;;;;;;;1.73;1.63;;;;;;;8.75;83.47;99001.06;4933028;29;20039;-74
2022/01/02 12:15:44;;;;;;;1.50;1.40;;;;;;;8.97;81.18;98981.09;4935132;29;20163;-75
2022/01/02 12:18:17;;;;;;;1.73;1.30;;;;;;;9.02;83.72;98969.00;4934848;29;20020;-74
2022/01/02 12:21:00;;;;;;;6.03;3.40;;;;;;;8.95;82.47;98983.72;4935111;29;20024;-75
2022/01/02 12:23:40;;;;;;;6.07;2.47;;;;;;;9.04;81.30;98987.06;4934860;29;20032;-74
2022/01/02 12:26:20;;;;;;;1.70;1.60;;;;;;;9.08;83.24;98958.59;4933597;29;20031;-75
2022/01/02 12:28:50;;;;;;;;;;;;;;;9.22;81.00;98940.38;4935255;29;20024;-74
2022/01/02 12:31:17;;;;;;;2.17;1.17;;;;;;;9.40;79.35;98929.84;4933657;29;19993;-74
2022/01/02 12:33:44;;;;;;;4.32;2.03;;;;;;;9.87;74.64;98920.66;4935067;29;20019;-75
2022/01/02 12:36:11;;;;;;;1.90;1.50;;;;;;;10.04;71.84;98916.09;4928292;29;20051;-74
2022/01/02 12:38:59;;;;;;;1.27;1.25;;;;;;;10.14;72.49;98909.06;4926827;29;20020;-74
2022/01/02 12:41:27;;;;;;;0.85;0.80;;;;;;;10.41;69.82;98897.50;4936052;29;20035;-75
2022/01/02 12:44:05;;;;;;;1.10;1.00;;;;;;;10.78;67.27;98896.88;4938711;29;20023;-74
2022/01/02 12:46:37;;;;;;;0.90;0.90;;;;;;;11.23;62.79;98904.75;4938661;29;20039;-74
2022/01/02 12:49:05;;;;;;;0.55;0.55;;;;;;;11.55;62.00;98892.00;4938753;29;20086;-75
2022/01/02 12:51:32;;;;;;;1.48;0.80;;;;;;;12.07;60.94;98906.50;4938453;29;20031;-75
2022/01/02 12:54:29;;;;;;;4.20;1.02;;;;;;;12.70;59.61;98909.41;4938471;29;20482;-75
2022/01/02 12:56:57;;;;;;;0.98;0.90;;;;;;;12.85;59.26;98916.81;4937750;29;20094;-75
2022/01/02 12:59:35;;;;;;;2.30;1.35;;;;;;;13.06;60.88;98926.69;4938435;29;20536;-80
2022/01/02 13:02:00;;;;;;;0.95;0.80;;;;;;;13.10;55.61;98917.03;4936842;29;20115;-74
2022/01/02 13:04:29;;;;;;;0.50;0.45;;;;;;;13.27;54.16;98914.03;4932651;29;20032;-74
2022/01/02 13:06:57;;;;;;;0.30;0.30;;;;;;;13.31;55.66;98923.47;4934893;29;20480;-74
2022/01/02 13:09:40;;;;;;;0.73;0.60;;;;;;;13.07;55.08;98911.94;4925236;29;20268;-81
2022/01/02 13:12:09;;;;;;;0.40;0.40;;;;;;;13.19;55.02;98910.75;4919062;29;20023;-81
2022/01/02 13:14:44;;;;;;;0.40;0.40;;;;;;;13.31;54.54;98900.06;4919066;29;20019;-81
2022/01/02 13:17:38;;;;;;;0.50;0.50;;;;;;;13.26;54.42;98888.91;4919129;29;20083;-81
2022/01/02 13:20:04;;;;;;;0.88;0.85;;;;;;;13.25;54.37;98889.81;4918108;29;20032;-75
2022/01/02 13:22:31;;;;;;;1.92;0.77;;;;;;;13.40;54.58;98888.56;4918923;29;20504;-76
2022/01/02 13:25:05;;;;;;;0.80;0.80;;;;;;;13.55;54.29;98877.72;4918693;29;20028;-78
2022/01/02 13:27:30;;;;;;;0.57;0.57;;;;;;;13.55;55.69;98873.34;4918671;29;20027;-79
2022/01/02 13:30:02;;;;;;;0.40;0.40;;;;;;;13.67;51.49;98876.50;4918916;29;20024;-75
2022/01/02 13:32:36;;;;;;;1.65;1.20;;;;;;;13.72;53.35;98872.00;4918755;29;20075;-76
2022/01/02 13:35:08;;;;;;;2.08;0.82;;;;;;;13.67;53.67;98872.13;4926361;29;20027;-79
2022/01/02 13:37:45;;;;;;;2.17;0.85;;;;;;;13.47;54.31;98864.91;4934240;29;20035;-75
2022/01/02 13:40:21;;;;;;;0.45;0.45;;;;;;;13.67;53.16;98864.31;4937717;29;20029;-78
2022/01/02 13:42:52;;;;;;;1.38;1.02;;;;;;;13.65;52.96;98854.88;4937581;29;20027;-78
2022/01/02 13:45:22;;;;;;;0.45;0.45;;;;;;;13.81;50.90;98858.72;4937666;29;20036;-78
2022/01/02 13:47:47;;;;;;;0.40;0.40;;;;;;;13.69;53.18;98849.53;4937330;29;20039;-78
2022/01/02 13:50:30;;;;;;;0.70;0.65;;;;;;;13.94;49.90;98844.44;4937509;29;20030;-79
2022/01/02 13:52:59;;;;;;;2.95;1.42;;;;;;;14.13;47.89;98844.72;4936550;29;20028;-78
2022/01/02 13:55:27;;;;;;;0.55;0.55;;;;;;;14.28;48.63;98832.94;4937503;29;20038;-78
2022/01/02 13:57:53;;;;;;;0.75;0.40;;;;;;;14.53;47.96;98836.50;4937201;29;20405;-78
2022/01/02 14:00:21;;;;;;;0.57;0.40;;;;;;;14.63;47.01;98850.06;4937151;29;20032;-78
2022/01/02 14:02:54;;;;;;;1.58;1.17;;;;;;;14.72;46.20;98843.69;4937221;29;20114;-78
2022/01/02 14:05:40;;;;;;;1.45;1.10;;;;;;;14.67;47.40;98827.34;4937451;29;20027;-78
2022/01/02 14:08:17;;;;;;;2.67;1.23;;;;;;;14.53;46.75;98827.81;4917634;29;20040;-78
2022/01/02 14:10:44;;;;;;;1.80;0.95;;;;;;;14.51;46.33;98824.41;4918132;29;20654;-78
2022/01/02 14:13:15;;;;;;;2.58;0.98;;;;;;;14.44;47.28;98828.94;4918220;29;20455;-79
2022/01/02 14:15:42;;;;;;;1.42;1.17;;;;;;;14.30;47.27;98847.63;4918646;29;20039;-75
2022/01/02 14:18:08;;;;;;;3.45;1.33;;;;;;;14.32;47.99;98851.06;4918028;29;20505;-75
2022/01/02 14:20:35;;;;;;;4.50;2.97;;;;;;;14.17;48.60;98846.31;4917964;29;20038;-74
2022/01/02 14:23:04;;;;;;;0.95;0.82;;;;;;;14.23;48.09;98834.84;4917670;29;20031;-74
2022/01/02 14:25:29;;;;;;;7.25;1.70;;;;;;;14.21;48.99;98850.50;4917615;29;20032;-78
2022/01/02 14:27:55;;;;;;;2.88;1.55;;;;;;;13.97;50.21;98849.53;4917686;29;20226;-73
2022/01/02 14:30:22;;;;;;;3.75;1.40;;;;;;;14.17;48.63;98845.44;4917607;29;20526;-73
2022/01/02 14:32:48;;;;;;;0.82;0.82;;;;;;;14.19;48.68;98859.28;4917777;29;20059;-73
2022/01/02 14:35:16;;;;;;;1.17;0.95;;;;;;;14.20;48.48;98866.22;4918907;29;20064;-75
2022/01/02 14:37:47;;;;;;;0.70;0.40;;;;;;;14.20;48.63;98848.81;4918797;29;20454;-74
2022/01/02 14:40:13;;;;;;;2.38;1.17;;;;;;;14.28;48.45;98843.38;4917329;29;20469;-74
2022/01/02 14:42:40;;;;;;;0.55;0.55;;;;;;;14.18;49.29;98855.00;4917651;29;20028;-74
2022/01/02 14:45:07;;;;;;;0.63;0.63;;;;;;;14.10;49.46;98866.50;4917357;29;20107;-74
2022/01/02 14:47:39;;;;;;;1.40;1.30;;;;;;;14.07;49.39;98857.91;4917222;29;20032;-74
2022/01/02 14:50:06;;;;;;;2.95;1.65;;;;;;;14.22;48.50;98860.06;4917322;29;20091;-74
2022/01/02 14:52:35;;;;;;;0.40;0.40;;;;;;;14.13;49.36;98866.41;4917134;29;20040;-74
2022/01/02 14:55:03;;;;;;;7.78;1.83;;;;;;;14.09;49.58;98870.00;4917349;29;20038;-74
2022/01/02 14:57:29;;;;;;;1.05;0.95;;;;;;;13.97;50.51;98879.94;4917161;29;20155;-74
2022/01/02 14:59:56;;;;;;;0.75;0.75;;;;;;;13.74;50.80;98875.44;4917155;29;20082;-76
2022/01/02 15:02:21;;;;;;;0.82;0.82;;;;;;;13.87;50.56;98879.34;4917022;29;20024;-73
2022/01/02 15:04:46;;;;;;;1.20;0.93;;;;;;;13.78;50.87;98884.84;4916933;29;20031;-73
2022/01/02 15:07:12;;;;;;;0.80;0.77;;;;;;;13.82;50.36;98886.44;4920162;29;20058;-73
2022/01/02 15:09:37;;;;;;;0.60;0.60;;;;;;;13.75;50.56;98885.78;4916962;29;20042;-72
2022/01/02 15:12:02;;;;;;;0.47;0.40;;;;;;;13.65;51.93;98893.91;4916879;29;20076;-73
2022/01/02 15:14:28;;;;;;;2.33;1.38;;;;;;;13.47;51.93;98893.53;4917041;29;20032;-73
2022/01/02 15:16:53;;;;;;;0.75;0.70;;;;;;;13.17;54.40;98889.13;4916712;29;20032;-74
2022/01/02 15:19:20;;;;;;;0.50;0.50;;;;;;;13.26;53.66;98891.53;4916957;29;20127;-72
2022/01/02 15:21:47;;;;;;;1.30;1.23;;;;;;;13.05;55.00;98885.97;4916641;29;20067;-73
2022/01/02 15:24:13;;;;;;;0.80;0.80;;;;;;;12.79;55.65;98903.97;4916930;29;20032;-73
2022/01/02 15:26:38;;;;;;;1.35;1.25;;;;;;;12.50;56.83;98900.34;4916671;29;20031;-73
2022/01/02 15:29:03;;;;;;;1.52;0.95;;;;;;;12.31;57.07;98904.25;4916759;29;20031;-73
2022/01/02 15:31:29;;;;;;;0.52;0.52;;;;;;;11.99;58.47;98898.06;4916566;29;20378;-73
2022/01/02 15:33:56;;;;;;;0.98;0.90;;;;;;;12.03;59.11;98904.84;4916543;29;20039;-73
2022/01/02 15:36:22;;;;;;;0.68;0.68;;;;;;;12.02;58.46;98902.31;4920019;29;20028;-74
2022/01/02 15:38:48;;;;;;;0.45;0.45;;;;;;;12.40;56.16;98908.38;4914995;29;20036;-74
2022/01/02 15:41:13;;;;;;;12.57;1.10;;;;;;;12.53;55.99;98915.88;4916410;29;20474;-74
2022/01/02 15:43:39;;;;;;;1.45;0.80;;;;;;;12.46;57.09;98919.47;4916315;29;20028;-74
2022/01/02 15:46:04;;;;;;;0.70;0.70;;;;;;;12.39;57.02;98922.28;4916178;29;20036;-74
2022/01/02 15:48:30;;;;;;;0.45;0.45;;;;;;;12.50;55.80;98921.13;4916229;29;20417;-74
2022/01/02 15:50:56;;;;;;;1.40;0.85;;;;;;;12.19;57.28;98920.13;4916106;29;20043;-74
2022/01/02 15:53:21;;;;;;;1.33;0.85;;;;;;;11.98;58.05;98914.50;4916152;29;20055;-74
2022/01/02 15:55:47;;;;;;;1.05;0.95;;;;;;;11.77;58.80;98917.53;4916036;29;20024;-74
2022/01/02 15:58:12;;;;;;;1.00;1.00;;;;;;;11.79;58.74;98908.81;4916086;29;20027;-74
2022/01/02 16:00:38;;;;;;;0.68;0.68;;;;;;;11.75;59.56;98916.72;4916070;29;20512;-74
2022/01/02 16:03:03;;;;;;;2.28;0.75;;;;;;;11.32;61.25;98910.63;4914918;29;20028;-74
2022/01/02 16:05:29;;;;;;;0.95;0.70;;;;;;;11.07;62.72;98923.19;4919406;29;20091;-74
2022/01/02 16:07:54;;;;;;;2.42;1.50;;;;;;;10.84;63.81;98916.69;4915870;29;20135;-74
2022/01/02 16:10:20;;;;;;;2.85;2.03;;;;;;;10.67;64.47;98920.38;4915966;29;20028;-75
2022/01/02 16:12:45;;;;;;;1.65;1.55;;;;;;;10.47;65.64;98928.47;4914849;29;20390;-75
2022/01/02 16:15:11;;;;;;;1.70;1.25;;;;;;;10.27;67.07;98925.34;4915823;29;20028;-74
2022/01/02 16:17:37;;;;;;;3.40;1.35;;;;;;;9.92;69.36;98924.06;4914225;29;20024;-74
2022/01/02 16:20:03;;;;;;;1.05;0.95;;;;;;;9.97;69.70;98937.78;4915749;29;20032;-76
2022/01/02 16:22:28;;;;;;;0.60;0.60;;;;;;;9.87;69.98;98941.38;4916084;29;20031;-74
2022/01/02 16:24:53;;;;;;;0.82;0.82;;;;;;;9.94;70.54;98943.00;4914484;29;20032;-74
2022/01/02 16:27:21;;;;;;;0.95;0.95;;;;;;;9.67;71.57;98939.03;4915840;29;20024;-74
2022/01/02 16:29:46;;;;;;;1.75;1.05;;;;;;;9.63;72.20;98936.50;4916121;29;20441;-74
2022/01/02 16:32:14;;;;;;;2.75;1.00;;;;;;;9.44;73.22;98947.03;4915856;29;20111;-74
2022/01/02 16:34:39;;;;;;;9.23;2.63;;;;;;;9.18;74.48;98934.38;4915724;29;20052;-74
2022/01/02 16:37:05;;;;;;;1.05;0.95;;;;;;;9.10;75.26;98951.69;4919014;29;20056;-74
2022/01/02 16:39:30;;;;;;;4.25;1.67;;;;;;;8.98;76.40;98939.72;4915802;29;20446;-74
2022/01/02 16:41:55;;;;;;;1.98;1.58;;;;;;;8.99;76.22;98956.97;4915689;29;20522;-74
2022/01/02 16:44:21;;;;;;;1.20;1.10;;;;;;;8.95;76.11;98963.03;4915569;29;20035;-74
2022/01/02 16:46:46;;;;;;;1.80;1.70;;;;;;;8.88;77.12;98966.53;4915453;29;20103;-74
2022/01/02 16:49:13;;;;;;;3.78;3.28;;;;;;;8.66;78.54;98963.25;4915530;29;20035;-74
2022/01/02 16:51:39;;;;;;;12.77;4.13;;;;;;;8.66;78.64;98960.69;4915706;29;20036;-74
2022/01/02 16:54:04;;;;;;;7.20;3.13;;;;;;;8.54;79.58;98971.09;4915584;29;20083;-74
2022/01/02 16:56:30;;;;;;;3.40;2.10;;;;;;;8.41;79.79;98969.44;4915438;29;20068;-74
2022/01/02 16:58:56;;;;;;;19.00;2.85;;;;;;;8.34;80.67;98984.09;4915571;29;20024;-74
2022/01/02 17:01:21;;;;;;;2.95;2.17;;;;;;;8.36;80.10;98979.78;4915240;29;20047;-74
2022/01/02 17:03:47;;;;;;;4.85;1.90;;;;;;;8.33;80.73;98987.53;4915280;29;20059;-74
2022/01/02 17:06:13;;;;;;;2.45;2.10;;;;;;;8.27;81.04;98977.25;4918661;29;20096;-73
2022/01/02 17:08:38;;;;;;;5.72;3.00;;;;;;;8.24;81.14;98982.44;4915352;29;20016;-74
2022/01/02 17:11:06;;;;;;;3.58;2.20;;;;;;;8.21;81.24;98985.88;4915216;29;20031;-74
2022/01/02 17:13:31;;;;;;;5.22;2.17;;;;;;;8.19;80.99;98979.00;4915397;29;20036;-74
2022/01/02 17:15:56;;;;;;;0.73;0.73;;;;;;;8.32;80.70;98984.97;4915230;29;20036;-74
2022/01/02 17:18:23;;;;;;;2.35;1.50;;;;;;;8.27;81.26;98986.69;4915157;29;20051;-74
2022/01/02 17:20:48;;;;;;;2.55;2.25;;;;;;;8.27;80.71;98995.31;4915269;29;20024;-74
2022/01/02 17:23:13;;;;;;;3.53;1.20;;;;;;;8.21;80.94;98991.03;4915103;29;20028;-74
2022/01/02 17:25:40;;;;;;;0.90;0.90;;;;;;;8.16;81.37;98991.91;4915377;29;20031;-74
2022/01/02 17:28:06;;;;;;;1.50;1.40;;;;;;;8.09;81.75;99008.31;4915942;29;20032;-74
2022/01/02 17:30:34;;;;;;;3.45;1.13;;;;;;;8.02;82.24;99012.63;4918730;29;20024;-74
2022/01/02 17:33:00;;;;;;;0.73;0.73;;;;;;;8.08;81.50;99006.59;4918538;29;20031;-74
2022/01/02 17:35:25;;;;;;;2.58;1.00;;;;;;;8.10;81.36;99015.19;4921621;29;20068;-74
2022/01/02 17:37:51;;;;;;;5.32;3.08;;;;;;;8.19;79.86;99004.81;4918935;29;20024;-74
2022/01/02 17:40:18;;;;;;;4.00;1.70;;;;;;;8.13;81.27;99017.75;4917352;29;20032;-74
2022/01/02 17:42:45;;;;;;;7.43;3.15;;;;;;;8.07;81.55;99010.03;4918596;29;20032;-76
2022/01/02 17:45:11;;;;;;;5.97;3.33;;;;;;;7.99;81.71;99023.81;4918531;29;20042;-76
2022/01/02 17:47:36;;;;;;;3.65;3.10;;;;;;;7.89;82.23;99017.00;4918673;29;20020;-76
2022/01/02 17:50:05;;;;;;;6.93;2.25;;;;;;;7.77;83.09;99011.84;4918730;29;20115;-76
2022/01/02 17:52:30;;;;;;;7.20;3.53;;;;;;;7.76;83.08;99012.72;4918442;29;20020;-76
2022/01/02 17:54:56;;;;;;;2.17;1.58;;;;;;;7.65;83.48;99022.22;4917179;29;20023;-76
2022/01/02 17:57:21;;;;;;;2.50;2.17;;;;;;;7.58;84.07;99025.66;4918194;29;20032;-76
2022/01/02 17:59:47;;;;;;;5.28;1.50;;;;;;;7.59;83.99;99014.47;4918224;29;20055;-76
2022/01/02 18:02:12;;;;;;;2.60;1.77;;;;;;;7.51;84.82;99036.84;4918026;29;20028;-76
2022/01/02 18:04:37;;;;;;;22.90;10.80;;;;;;;7.54;84.98;99042.00;4918133;29;20020;-76
2022/01/02 18:07:03;;;;;;;4.35;2.95;;;;;;;7.62;85.65;99048.84;4921570;29;20028;-80
2022/01/02 18:09:36;;;;;;;1.63;1.40;;;;;;;7.73;84.17;99061.72;4917895;29;20107;-79
2022/01/02 18:12:01;;;;;;;1.88;1.38;;;;;;;7.67;85.07;99046.28;4918185;29;20453;-80
2022/01/02 18:14:27;;;;;;;1.73;1.63;;;;;;;7.57;84.93;99049.72;4917983;29;20031;-74
2022/01/02 18:16:53;;;;;;;0.82;0.82;;;;;;;7.54;85.15;99031.66;4917478;29;20541;-74
2022/01/02 18:19:18;;;;;;;1.50;1.40;;;;;;;7.49;85.93;99031.69;4917775;29;20401;-74
2022/01/02 18:21:50;;;;;;;5.38;0.88;;;;;;;7.38;85.82;99029.13;4918006;29;20073;-74
2022/01/02 18:24:18;;;;;;;1.63;1.52;;;;;;;7.32;85.89;99033.44;4917582;29;20031;-74
2022/01/02 18:26:43;;;;;;;2.60;2.35;;;;;;;7.39;86.09;99020.53;4916343;29;20032;-74
2022/01/02 18:29:09;;;;;;;1.70;1.30;;;;;;;7.38;85.73;99023.97;4916456;29;20031;-74
2022/01/02 18:31:34;;;;;;;1.38;1.30;;;;;;;7.32;85.83;99003.38;4917498;29;20501;-74
2022/01/02 18:33:59;;;;;;;3.15;2.83;;;;;;;7.25;86.13;98998.22;4932386;28;20024;-73
2022/01/02 18:36:25;;;;;;;5.95;3.72;;;;;;;7.09;87.38;98989.63;4920902;29;20152;-74
2022/01/02 18:38:51;;;;;;;2.63;1.85;;;;;;;6.92;88.58;98982.78;4917087;29;20398;-74
2022/01/02 18:41:16;;;;;;;3.22;2.78;;;;;;;7.04;88.20;98986.22;4917463;29;20036;-74
2022/01/02 18:43:42;;;;;;;1.90;1.77;;;;;;;6.97;88.58;98994.81;4917510;29;20059;-74
2022/01/02 18:46:08;;;;;;;3.42;2.45;;;;;;;7.03;88.05;98984.50;4917582;29;20023;-74
2022/01/02 18:48:34;;;;;;;2.00;1.83;;;;;;;6.86;88.89;99002.50;4917586;29;20529;-74